createdAt,value
2017-12-02T00:01:36.031Z,31.47
2017-12-02T00:04:03.128Z,37.13
2017-12-02T00:06:29.813Z,34.80
2017-12-02T00:08:55.722Z,37.42
2017-12-02T00:11:21.668Z,36.53
2017-12-02T00:13:47.713Z,39.17
2017-12-02T00:16:13.621Z,36.67
2017-12-02T00:18:39.535Z,40.80
2017-12-02T00:21:05.459Z,39.67
2017-12-02T00:23:31.381Z,41.60
2017-12-02T00:25:57.310Z,41.50
2017-12-02T00:28:23.228Z,43.57
2017-12-02T00:30:49.195Z,40.90
2017-12-02T00:33:15.175Z,36.67
2017-12-02T00:35:41.085Z,44.37
2017-12-02T00:38:07.014Z,35.40
2017-12-02T00:40:32.958Z,33.70
2017-12-02T00:42:58.890Z,41.07
2017-12-02T00:45:24.849Z,40.90
2017-12-02T00:47:51.526Z,37.17
2017-12-02T00:50:17.443Z,34.30
2017-12-02T00:52:43.366Z,35.87
2017-12-02T00:55:09.260Z,35.20
2017-12-02T00:57:35.187Z,38.53
2017-12-02T01:00:01.191Z,36.17
2017-12-02T01:02:27.950Z,38.85
2017-12-02T01:04:53.897Z,33.95
2017-12-02T01:07:20.788Z,39.90
2017-12-02T01:09:46.730Z,32.90
2017-12-02T01:12:13.546Z,38.10
2017-12-02T01:14:40.609Z,36.10
2017-12-02T01:17:07.837Z,34.88
2017-12-02T01:19:34.745Z,34.17
2017-12-02T01:22:00.699Z,36.88
2017-12-02T01:24:27.198Z,41.03
2017-12-02T01:26:53.886Z,34.72
2017-12-02T01:29:20.828Z,36.60
2017-12-02T01:31:46.797Z,34.35
2017-12-02T01:34:12.745Z,33.63
2017-12-02T01:36:38.645Z,39.47
2017-12-02T01:39:04.551Z,38.73
2017-12-02T01:41:30.447Z,31.40
2017-12-02T01:43:56.371Z,40.97
2017-12-02T01:46:22.342Z,39.03
2017-12-02T01:48:48.255Z,38.07
2017-12-02T01:51:14.951Z,39.50
2017-12-02T01:53:40.874Z,39.00
2017-12-02T01:56:06.767Z,36.60
2017-12-02T01:58:32.694Z,36.20
2017-12-02T02:00:58.618Z,39.53
2017-12-02T02:03:24.579Z,36.47
2017-12-02T02:05:50.501Z,39.97
2017-12-02T02:08:17.162Z,37.00
2017-12-02T02:10:43.078Z,35.05
2017-12-02T02:13:08.995Z,35.70
2017-12-02T02:15:34.928Z,37.17
2017-12-02T02:18:00.905Z,38.77
2017-12-02T02:20:26.811Z,39.93
2017-12-02T02:22:52.814Z,37.90
2017-12-02T02:25:19.475Z,42.80
2017-12-02T02:27:45.397Z,40.20
2017-12-02T02:30:11.312Z,42.07
2017-12-02T02:32:37.233Z,37.33
2017-12-02T02:35:03.174Z,36.60
2017-12-02T02:37:29.308Z,36.30
2017-12-02T02:39:55.245Z,35.08
2017-12-02T02:42:21.175Z,35.73
2017-12-02T02:44:47.147Z,35.97
2017-12-02T02:47:13.141Z,35.07
2017-12-02T02:49:39.090Z,38.95
2017-12-02T02:52:05.012Z,39.40
2017-12-02T02:54:30.954Z,37.97
2017-12-02T02:56:56.934Z,36.35
2017-12-02T02:59:22.891Z,39.43
2017-12-02T03:01:48.883Z,37.40
2017-12-02T03:04:14.800Z,43.07
2017-12-02T03:06:40.735Z,37.90
2017-12-02T03:09:07.513Z,37.60
2017-12-02T03:11:34.149Z,41.97
2017-12-02T03:14:01.255Z,39.42
2017-12-02T03:16:28.098Z,41.00
2017-12-02T03:18:54.018Z,39.10
2017-12-02T03:21:19.943Z,33.17
2017-12-02T03:23:45.962Z,37.93
2017-12-02T03:26:11.879Z,41.47
2017-12-02T03:28:38.748Z,38.43
2017-12-02T03:31:05.427Z,45.80
2017-12-02T03:33:31.515Z,37.42
2017-12-02T03:35:58.172Z,39.38
2017-12-02T03:38:24.095Z,40.97
2017-12-02T03:40:50.053Z,40.87
2017-12-02T03:43:15.991Z,44.90
2017-12-02T03:45:42.115Z,36.50
2017-12-02T03:48:08.048Z,37.65
2017-12-02T03:50:33.985Z,38.00
2017-12-02T03:52:59.904Z,38.37
2017-12-02T03:55:26.162Z,40.37
2017-12-02T03:57:52.123Z,36.22
2017-12-02T04:00:18.918Z,40.03
2017-12-02T04:02:44.851Z,43.67
2017-12-02T04:05:10.761Z,40.13
2017-12-02T04:07:36.787Z,39.20
2017-12-02T04:10:02.710Z,43.35
2017-12-02T04:12:28.634Z,39.67
2017-12-02T04:14:54.590Z,41.87
2017-12-02T04:17:20.553Z,40.47
2017-12-02T04:19:46.473Z,42.90
2017-12-02T04:22:13.167Z,45.50
2017-12-02T04:24:39.144Z,43.92
2017-12-02T04:27:06.178Z,45.10
2017-12-02T04:29:32.109Z,49.10
2017-12-02T04:31:58.099Z,43.90
2017-12-02T04:34:24.787Z,45.03
2017-12-02T04:36:50.739Z,51.58
2017-12-02T04:39:16.708Z,49.57
2017-12-02T04:41:42.695Z,52.77
2017-12-02T04:44:08.784Z,52.93
2017-12-02T04:46:34.724Z,52.42
2017-12-02T04:49:00.645Z,48.53
2017-12-02T04:51:26.589Z,47.97
2017-12-02T04:53:52.520Z,47.57
2017-12-02T04:56:18.471Z,44.30
2017-12-02T04:58:44.380Z,48.33
2017-12-02T05:01:10.312Z,41.97
2017-12-02T05:03:36.282Z,44.50
2017-12-02T05:06:02.210Z,41.50
2017-12-02T05:08:28.098Z,45.90
2017-12-02T05:10:54.029Z,51.20
2017-12-02T05:13:20.023Z,43.70
2017-12-02T05:15:46.684Z,52.38
2017-12-02T05:18:12.578Z,45.20
2017-12-02T05:20:39.118Z,52.93
2017-12-02T05:23:05.826Z,48.38
2017-12-02T05:25:32.511Z,47.30
2017-12-02T05:27:58.496Z,48.05
2017-12-02T05:30:24.401Z,49.87
2017-12-02T05:32:51.066Z,55.90
2017-12-02T05:35:17.008Z,52.97
2017-12-02T05:37:42.915Z,47.60
2017-12-02T05:40:08.847Z,44.83
2017-12-02T05:42:34.775Z,47.07
2017-12-02T05:45:00.854Z,49.00
2017-12-02T05:47:26.769Z,52.65
2017-12-02T05:49:52.777Z,52.20
2017-12-02T05:52:19.453Z,52.92
2017-12-02T05:54:46.069Z,50.50
2017-12-02T05:57:12.163Z,45.65
2017-12-02T05:59:38.117Z,56.15
2017-12-02T06:02:04.020Z,43.17
2017-12-02T06:04:30.694Z,49.10
2017-12-02T06:06:56.647Z,53.20
2017-12-02T06:09:22.579Z,50.23
2017-12-02T06:11:48.497Z,48.70
2017-12-02T06:14:14.419Z,52.83
2017-12-02T06:16:40.343Z,50.53
2017-12-02T06:19:06.273Z,51.93
2017-12-02T06:21:32.186Z,50.17
2017-12-02T06:23:58.137Z,51.03
2017-12-02T06:26:24.059Z,51.10
2017-12-02T06:28:49.972Z,53.53
2017-12-02T06:31:15.901Z,44.40
2017-12-02T06:33:41.823Z,49.17
2017-12-02T06:36:07.775Z,44.50
2017-12-02T06:38:33.739Z,58.07
2017-12-02T06:40:59.702Z,49.33
2017-12-02T06:43:25.679Z,59.10
2017-12-02T06:45:51.617Z,54.97
2017-12-02T06:48:18.469Z,56.70
2017-12-02T06:50:45.302Z,59.83
2017-12-02T06:53:11.946Z,50.75
2017-12-02T06:55:37.931Z,50.45
2017-12-02T06:58:04.058Z,59.27
2017-12-02T07:00:30.002Z,52.92
2017-12-02T07:02:55.935Z,62.30
2017-12-02T07:05:21.849Z,54.73
2017-12-02T07:07:47.795Z,54.67
2017-12-02T07:10:14.524Z,50.93
2017-12-02T07:12:40.434Z,49.35
2017-12-02T07:15:06.356Z,46.63
2017-12-02T07:17:32.292Z,54.50
2017-12-02T07:19:58.205Z,58.43
2017-12-02T07:22:24.146Z,53.93
2017-12-02T07:24:50.134Z,53.63
2017-12-02T07:27:16.082Z,52.23
2017-12-02T07:29:42.095Z,48.43
2017-12-02T07:32:08.946Z,57.47
2017-12-02T07:34:35.917Z,53.05
2017-12-02T07:37:03.888Z,50.83
2017-12-02T07:39:30.995Z,50.42
2017-12-02T07:41:57.014Z,51.47
2017-12-02T07:44:23.048Z,59.10
2017-12-02T07:46:49.933Z,50.88
2017-12-02T07:49:18.504Z,55.45
2017-12-02T07:51:46.634Z,51.95
2017-12-02T07:54:16.431Z,48.60
2017-12-02T07:56:43.228Z,54.03
2017-12-02T07:59:09.171Z,52.75
2017-12-02T08:01:35.203Z,56.00
2017-12-02T08:04:02.057Z,44.85
2017-12-02T08:06:28.955Z,47.95
2017-12-02T08:08:55.541Z,52.83
2017-12-02T08:11:25.539Z,45.00
2017-12-02T08:13:54.409Z,48.00
2017-12-02T08:16:21.741Z,51.33
2017-12-02T08:18:47.716Z,45.17
2017-12-02T08:21:16.332Z,51.90
2017-12-02T08:23:42.624Z,50.00
2017-12-02T08:26:08.533Z,54.13
2017-12-02T08:28:34.466Z,50.60
2017-12-02T08:31:01.969Z,50.90
2017-12-02T08:33:27.921Z,51.88
2017-12-02T08:35:53.856Z,59.67
2017-12-02T08:38:20.620Z,61.00
2017-12-02T08:40:46.539Z,49.85
2017-12-02T08:43:12.474Z,60.10
2017-12-02T08:45:39.156Z,55.80
2017-12-02T08:48:05.102Z,53.00
2017-12-02T08:50:38.050Z,50.47
2017-12-02T08:53:04.047Z,55.30
2017-12-02T08:55:30.109Z,52.40
2017-12-02T08:57:56.016Z,53.80
2017-12-02T09:00:21.923Z,65.33
2017-12-02T09:02:48.022Z,50.70
2017-12-02T09:05:15.496Z,53.60
2017-12-02T09:07:41.484Z,55.12
2017-12-02T09:10:08.394Z,51.03
2017-12-02T09:12:34.583Z,49.47
2017-12-02T09:15:02.418Z,56.40
2017-12-02T09:17:28.416Z,45.75
2017-12-02T09:19:54.489Z,49.33
2017-12-02T09:22:20.381Z,49.80
2017-12-02T09:24:46.386Z,43.57
2017-12-02T09:27:14.440Z,48.67
2017-12-02T09:29:40.541Z,43.75
2017-12-02T09:32:06.560Z,46.35
2017-12-02T09:34:32.497Z,43.58
2017-12-02T09:36:59.980Z,48.43
2017-12-02T09:39:25.940Z,58.17
2017-12-02T09:41:52.009Z,54.70
2017-12-02T09:44:18.392Z,50.28
2017-12-02T09:46:44.363Z,50.38
2017-12-02T09:49:10.318Z,46.30
2017-12-02T09:51:36.993Z,53.30
2017-12-02T09:54:03.662Z,54.08
2017-12-02T09:56:29.565Z,53.63
2017-12-02T09:58:55.519Z,51.10
2017-12-02T10:01:21.513Z,66.20
2017-12-02T10:03:47.431Z,56.70
2017-12-02T10:06:13.359Z,56.23
2017-12-02T10:08:40.096Z,51.30
2017-12-02T10:11:06.190Z,51.50
2017-12-02T10:13:32.476Z,46.47
2017-12-02T10:15:59.913Z,55.97
2017-12-02T10:18:25.983Z,48.38
2017-12-02T10:20:51.929Z,45.97
2017-12-02T10:23:17.903Z,47.87
2017-12-02T10:25:43.903Z,47.10
2017-12-02T10:28:10.748Z,43.63
2017-12-02T10:30:36.711Z,51.45
2017-12-02T10:33:02.707Z,52.27
2017-12-02T10:35:28.683Z,46.45
2017-12-02T10:37:54.613Z,48.17
2017-12-02T10:40:20.516Z,39.40
2017-12-02T10:42:46.495Z,42.97
2017-12-02T10:45:12.548Z,49.90
2017-12-02T10:47:38.511Z,42.05
2017-12-02T10:50:05.455Z,40.53
2017-12-02T10:52:31.428Z,41.33
2017-12-02T10:54:57.453Z,40.37
2017-12-02T10:57:23.395Z,42.45
2017-12-02T10:59:49.304Z,38.83
2017-12-02T11:02:15.211Z,44.70
2017-12-02T11:04:41.160Z,48.07
2017-12-02T11:07:07.073Z,48.27
2017-12-02T11:09:32.971Z,40.23
2017-12-02T11:11:58.996Z,44.53
2017-12-02T11:14:24.965Z,43.45
2017-12-02T11:16:50.893Z,44.30
2017-12-02T11:19:17.545Z,45.87
2017-12-02T11:21:43.510Z,46.70
2017-12-02T11:24:10.278Z,69.03
2017-12-02T11:26:36.255Z,47.72
2017-12-02T11:29:02.342Z,40.63
2017-12-02T11:31:28.250Z,40.92
2017-12-02T11:33:54.238Z,49.00
2017-12-02T11:36:20.903Z,43.13
2017-12-02T11:38:46.842Z,41.08
2017-12-02T11:41:13.488Z,37.57
2017-12-02T11:43:39.491Z,52.80
2017-12-02T11:46:05.388Z,47.75
2017-12-02T11:48:32.059Z,47.53
2017-12-02T11:50:58.068Z,53.35
2017-12-02T11:53:25.033Z,45.28
2017-12-02T11:55:51.712Z,46.33
2017-12-02T11:58:17.639Z,42.53
2017-12-02T12:00:44.056Z,44.23
2017-12-02T12:03:10.097Z,42.67
2017-12-02T12:05:36.125Z,44.58
2017-12-02T12:08:02.052Z,42.05
2017-12-02T12:10:28.033Z,43.90
2017-12-02T12:12:54.055Z,43.53
2017-12-02T12:15:19.983Z,46.10
2017-12-02T12:17:45.903Z,46.27
2017-12-02T12:20:12.896Z,50.37
2017-12-02T12:22:39.560Z,43.53
2017-12-02T12:25:05.687Z,47.25
2017-12-02T12:27:31.604Z,43.10
2017-12-02T12:29:58.328Z,43.07
2017-12-02T12:32:24.334Z,42.97
2017-12-02T12:34:50.335Z,36.38
2017-12-02T12:37:17.277Z,40.12
2017-12-02T12:39:43.351Z,47.10
2017-12-02T12:42:09.247Z,39.47
2017-12-02T12:44:35.167Z,43.43
2017-12-02T12:47:01.130Z,40.13
2017-12-02T12:49:27.007Z,48.30
2017-12-02T12:51:52.998Z,154.80
2017-12-02T12:54:18.967Z,76.17
2017-12-02T12:56:44.896Z,49.77
2017-12-02T12:59:11.593Z,50.23
2017-12-02T13:01:37.542Z,37.85
2017-12-02T13:04:03.456Z,51.37
2017-12-02T13:06:29.377Z,46.13
2017-12-02T13:08:55.287Z,46.13
2017-12-02T13:11:21.267Z,46.83
2017-12-02T13:13:47.219Z,46.80
2017-12-02T13:16:13.218Z,46.30
2017-12-02T13:18:39.134Z,44.67
2017-12-02T13:21:05.068Z,46.20
2017-12-02T13:23:30.987Z,42.40
2017-12-02T13:25:56.974Z,39.40
2017-12-02T13:28:23.730Z,40.23
2017-12-02T13:30:49.702Z,42.72
2017-12-02T13:33:15.679Z,38.50
2017-12-02T13:35:41.600Z,44.33
2017-12-02T13:38:07.508Z,45.90
2017-12-02T13:40:33.517Z,41.23
2017-12-02T13:43:00.431Z,44.45
2017-12-02T13:45:26.462Z,41.40
2017-12-02T13:47:52.451Z,43.22
2017-12-02T13:50:18.396Z,41.60
2017-12-02T13:52:44.332Z,45.23
2017-12-02T13:55:10.262Z,45.50
2017-12-02T13:57:36.316Z,37.43
2017-12-02T14:00:02.489Z,38.83
2017-12-02T14:02:28.441Z,36.75
2017-12-02T14:04:55.354Z,42.43
2017-12-02T14:07:21.270Z,38.10
2017-12-02T14:09:48.210Z,38.33
2017-12-02T14:12:14.391Z,34.37
2017-12-02T14:14:40.427Z,45.10
2017-12-02T14:17:06.795Z,37.40
2017-12-02T14:19:33.391Z,36.10
2017-12-02T14:22:01.981Z,39.07
2017-12-02T14:24:27.900Z,56.70
2017-12-02T14:26:53.806Z,37.13
2017-12-02T14:29:19.743Z,32.63
2017-12-02T14:31:45.695Z,35.20
2017-12-02T14:34:11.736Z,38.37
2017-12-02T14:36:38.296Z,37.63
2017-12-02T14:39:05.009Z,34.27
2017-12-02T14:41:30.956Z,31.80
2017-12-02T14:43:56.916Z,37.60
2017-12-02T14:46:22.844Z,38.70
2017-12-02T14:48:48.860Z,34.30
2017-12-02T14:51:16.538Z,33.72
2017-12-02T14:53:43.194Z,41.00
2017-12-02T14:56:10.751Z,37.60
2017-12-02T14:58:36.737Z,33.97
2017-12-02T15:01:02.783Z,36.57
2017-12-02T15:03:28.807Z,36.67
2017-12-02T15:05:59.705Z,38.83
2017-12-02T15:08:25.631Z,35.33
2017-12-02T15:10:52.578Z,33.47
2017-12-02T15:13:18.551Z,33.13
2017-12-02T15:15:45.125Z,33.47
2017-12-02T15:18:11.076Z,39.67
2017-12-02T15:20:37.693Z,39.60
2017-12-02T15:23:04.618Z,35.63
2017-12-02T15:25:30.584Z,39.95
2017-12-02T15:27:56.721Z,35.73
2017-12-02T15:30:22.664Z,42.97
2017-12-02T15:32:51.475Z,39.03
2017-12-02T15:35:18.079Z,35.83
2017-12-02T15:37:44.910Z,36.70
2017-12-02T15:40:11.649Z,39.13
2017-12-02T15:42:38.920Z,42.03
2017-12-02T15:45:05.175Z,38.20
2017-12-02T15:47:31.151Z,38.20
2017-12-02T15:49:57.456Z,39.67
2017-12-02T15:52:24.202Z,39.65
2017-12-02T15:54:51.248Z,42.58
2017-12-02T15:57:17.791Z,43.10
2017-12-02T15:59:46.057Z,53.35
2017-12-02T16:02:13.004Z,48.45
2017-12-02T16:04:39.007Z,43.97
2017-12-02T16:07:06.150Z,42.03
2017-12-02T16:09:36.755Z,44.97
2017-12-02T16:12:02.739Z,45.92
2017-12-02T16:14:28.768Z,43.13
2017-12-02T16:16:55.708Z,47.88
2017-12-02T16:19:22.465Z,41.65
2017-12-02T16:21:48.431Z,36.35
2017-12-02T16:24:14.382Z,39.77
2017-12-02T16:26:40.344Z,46.97
2017-12-02T16:29:07.048Z,50.57
2017-12-02T16:31:32.981Z,50.83
2017-12-02T16:33:59.240Z,60.70
2017-12-02T16:36:25.178Z,56.72
2017-12-02T16:38:51.948Z,50.70
2017-12-02T16:41:17.967Z,54.42
2017-12-02T16:43:44.814Z,57.60
2017-12-02T16:46:11.551Z,56.42
2017-12-02T16:48:37.479Z,46.25
2017-12-02T16:51:09.099Z,45.90
2017-12-02T16:53:35.044Z,45.92
2017-12-02T16:56:00.981Z,48.20
2017-12-02T16:58:27.024Z,52.30
2017-12-02T17:00:54.492Z,56.25
2017-12-02T17:03:20.582Z,51.20
2017-12-02T17:05:47.551Z,50.53
2017-12-02T17:08:13.723Z,42.45
2017-12-02T17:10:40.439Z,47.97
2017-12-02T17:13:07.027Z,55.20
2017-12-02T17:15:33.140Z,41.72
2017-12-02T17:17:59.191Z,51.95
2017-12-02T17:20:26.209Z,50.35
2017-12-02T17:22:54.048Z,49.13
2017-12-02T17:25:20.004Z,45.58
2017-12-02T17:27:45.994Z,52.47
2017-12-02T17:30:11.899Z,48.50
2017-12-02T17:32:37.891Z,52.00
2017-12-02T17:35:04.610Z,50.90
2017-12-02T17:37:30.567Z,47.85
2017-12-02T17:39:56.521Z,53.23
2017-12-02T17:42:22.466Z,55.10
2017-12-02T17:44:48.357Z,56.03
2017-12-02T17:47:14.308Z,53.57
2017-12-02T17:49:41.025Z,53.90
2017-12-02T17:52:07.015Z,52.53
2017-12-02T17:54:32.952Z,48.63
2017-12-02T17:56:59.677Z,43.23
2017-12-02T17:59:25.603Z,51.45
2017-12-02T18:01:51.527Z,54.07
2017-12-02T18:04:17.575Z,46.27
2017-12-02T18:06:44.033Z,48.28
2017-12-02T18:09:10.131Z,46.60
2017-12-02T18:11:37.150Z,47.62
2017-12-02T18:14:04.051Z,49.45
2017-12-02T18:16:30.371Z,48.28
2017-12-02T18:18:56.341Z,52.97
2017-12-02T18:21:22.303Z,50.27
2017-12-02T18:23:49.627Z,56.10
2017-12-02T18:26:15.622Z,54.42
2017-12-02T18:28:41.578Z,50.33
2017-12-02T18:31:07.528Z,55.63
2017-12-02T18:33:33.502Z,49.60
2017-12-02T18:36:00.231Z,55.17
2017-12-02T18:38:26.174Z,52.03
2017-12-02T18:40:53.079Z,57.67
2017-12-02T18:43:19.069Z,55.63
2017-12-02T18:45:45.970Z,47.83
2017-12-02T18:48:11.899Z,52.58
2017-12-02T18:50:37.852Z,54.97
2017-12-02T18:53:03.852Z,50.97
2017-12-02T18:55:30.135Z,88.90
2017-12-02T18:57:56.846Z,113.62
2017-12-02T19:00:22.826Z,51.40
2017-12-02T19:02:49.054Z,47.50
2017-12-02T19:05:16.740Z,49.30
2017-12-02T19:07:43.721Z,60.83
2017-12-02T19:10:10.472Z,47.95
2017-12-02T19:12:36.415Z,56.58
2017-12-02T19:15:02.411Z,48.47
2017-12-02T19:17:28.355Z,47.05
2017-12-02T19:19:54.314Z,51.30
2017-12-02T19:22:22.768Z,51.00
2017-12-02T19:24:49.770Z,48.90
2017-12-02T19:27:17.250Z,57.15
2017-12-02T19:29:43.295Z,50.47
2017-12-02T19:32:10.274Z,48.90
2017-12-02T19:34:38.639Z,55.47
2017-12-02T19:37:04.646Z,52.35
2017-12-02T19:39:30.580Z,60.20
2017-12-02T19:41:57.996Z,53.57
2017-12-02T19:44:23.994Z,54.10
2017-12-02T19:46:50.868Z,50.67
2017-12-02T19:49:17.010Z,52.13
2017-12-02T19:51:44.509Z,52.28
2017-12-02T19:54:12.218Z,47.60
2017-12-02T19:56:39.830Z,45.85
2017-12-02T19:59:08.679Z,48.63
2017-12-02T20:01:34.625Z,51.58
2017-12-02T20:04:01.577Z,53.37
2017-12-02T20:06:27.660Z,51.67
2017-12-02T20:08:55.472Z,51.13
2017-12-02T20:11:22.063Z,68.12
2017-12-02T20:13:48.083Z,65.40
2017-12-02T20:16:14.074Z,86.15
2017-12-02T20:18:40.826Z,55.67
2017-12-02T20:21:06.973Z,60.45
2017-12-02T20:23:34.258Z,57.30
2017-12-02T20:26:00.203Z,46.13
2017-12-02T20:28:27.033Z,53.63
2017-12-02T20:30:53.010Z,51.95
2017-12-02T20:33:19.035Z,48.63
2017-12-02T20:35:45.044Z,53.40
2017-12-02T20:38:11.555Z,54.97
2017-12-02T20:40:37.579Z,47.80
2017-12-02T20:43:04.043Z,47.40
2017-12-02T20:45:29.976Z,49.92
2017-12-02T20:47:55.912Z,54.50
2017-12-02T20:50:22.653Z,50.40
2017-12-02T20:52:48.582Z,47.83
2017-12-02T20:55:15.007Z,53.50
2017-12-02T20:57:40.956Z,46.63
2017-12-02T21:00:06.951Z,54.03
2017-12-02T21:02:33.524Z,53.22
2017-12-02T21:04:59.801Z,49.30
2017-12-02T21:07:25.816Z,49.67
2017-12-02T21:09:51.903Z,51.88
2017-12-02T21:12:17.833Z,78.75
2017-12-02T21:14:43.776Z,124.47
2017-12-02T21:17:09.771Z,90.27
2017-12-02T21:19:35.970Z,158.33
2017-12-02T21:22:01.928Z,139.43
2017-12-02T21:24:28.156Z,113.27
2017-12-02T21:26:54.730Z,65.53
2017-12-02T21:29:20.768Z,45.80
2017-12-02T21:31:46.738Z,47.70
2017-12-02T21:34:12.737Z,48.90
2017-12-02T21:36:38.781Z,47.75
2017-12-02T21:39:04.717Z,50.35
2017-12-02T21:41:30.727Z,50.03
2017-12-02T21:43:56.676Z,49.15
2017-12-02T21:46:22.630Z,47.47
2017-12-02T21:48:49.404Z,45.90
2017-12-02T21:51:15.349Z,48.10
2017-12-02T21:53:41.294Z,47.67
2017-12-02T21:56:08.287Z,46.43
2017-12-02T21:58:34.314Z,45.58
2017-12-02T22:01:00.803Z,44.55
2017-12-02T22:03:26.766Z,45.08
2017-12-02T22:05:52.698Z,53.20
2017-12-02T22:08:19.366Z,54.10
2017-12-02T22:10:45.275Z,51.22
2017-12-02T22:13:12.063Z,46.53
2017-12-02T22:15:38.773Z,54.25
2017-12-02T22:18:05.381Z,44.70
2017-12-02T22:20:31.523Z,51.37
2017-12-02T22:22:57.432Z,49.13
2017-12-02T22:25:24.306Z,49.70
2017-12-02T22:27:50.266Z,46.15
2017-12-02T22:30:17.238Z,74.50
2017-12-02T22:32:43.947Z,65.72
2017-12-02T22:35:11.640Z,78.78
2017-12-02T22:37:37.592Z,52.70
2017-12-02T22:40:03.578Z,46.63
2017-12-02T22:42:30.396Z,46.73
2017-12-02T22:44:56.810Z,52.72
2017-12-02T22:47:22.771Z,51.35
2017-12-02T22:49:48.689Z,49.67
2017-12-02T22:52:14.822Z,40.87
2017-12-02T22:54:41.307Z,48.28
2017-12-02T22:57:07.287Z,47.13
2017-12-02T22:59:33.286Z,53.03
2017-12-02T23:02:00.825Z,45.90
2017-12-02T23:04:26.800Z,54.92
2017-12-02T23:06:52.762Z,45.60
2017-12-02T23:09:19.460Z,44.00
2017-12-02T23:11:46.895Z,48.10
2017-12-02T23:14:13.623Z,44.88
2017-12-02T23:16:39.591Z,50.90
2017-12-02T23:19:05.626Z,48.73
2017-12-02T23:21:31.579Z,40.63
2017-12-02T23:23:58.692Z,43.33
2017-12-02T23:26:24.610Z,47.55
2017-12-02T23:28:51.524Z,47.37
2017-12-02T23:31:18.263Z,45.45
2017-12-02T23:33:44.898Z,46.08
2017-12-02T23:36:10.858Z,54.83
2017-12-02T23:38:36.790Z,44.70
2017-12-02T23:41:02.866Z,50.93
2017-12-02T23:43:28.794Z,42.67
2017-12-02T23:45:55.534Z,44.83
2017-12-02T23:48:21.510Z,52.25
2017-12-02T23:50:47.487Z,48.20
2017-12-02T23:53:13.416Z,45.23
2017-12-02T23:55:39.343Z,43.30
2017-12-02T23:58:05.319Z,46.83
